createdAt,value
2017-09-12T00:02:06.679Z,81.80
2017-09-12T00:04:32.827Z,82.00
2017-09-12T00:06:59.691Z,81.40
2017-09-12T00:09:26.902Z,81.50
2017-09-12T00:11:54.088Z,81.60
2017-09-12T00:14:21.015Z,81.30
2017-09-12T00:16:47.944Z,82.50
2017-09-12T00:19:14.433Z,82.50
2017-09-12T00:21:41.352Z,82.10
2017-09-12T00:24:08.337Z,82.10
2017-09-12T00:26:35.365Z,83.50
2017-09-12T00:29:02.235Z,84.00
2017-09-12T00:31:28.554Z,84.00
2017-09-12T00:33:55.252Z,83.90
2017-09-12T00:36:22.277Z,85.30
2017-09-12T00:38:49.268Z,85.40
2017-09-12T00:41:16.280Z,85.50
2017-09-12T00:43:42.516Z,85.40
2017-09-12T00:46:09.385Z,85.70
2017-09-12T00:48:36.347Z,85.70
2017-09-12T00:51:03.257Z,85.70
2017-09-12T00:53:30.148Z,86.60
2017-09-12T00:55:56.402Z,86.50
2017-09-12T00:58:23.352Z,86.70
2017-09-12T01:00:50.291Z,87.30
2017-09-12T01:03:17.212Z,87.10
2017-09-12T01:05:44.156Z,86.90
2017-09-12T01:08:11.059Z,87.60
2017-09-12T01:10:37.203Z,87.50
2017-09-12T01:13:04.072Z,87.60
2017-09-12T01:15:30.276Z,87.50
2017-09-12T01:17:57.196Z,87.00
2017-09-12T01:20:24.108Z,87.10
2017-09-12T01:22:50.984Z,87.40
2017-09-12T01:25:17.209Z,87.40
2017-09-12T01:27:44.096Z,86.90
2017-09-12T01:30:10.208Z,86.90
2017-09-12T01:32:37.086Z,87.60
2017-09-12T01:35:03.932Z,87.30
2017-09-12T01:37:30.880Z,87.90
2017-09-12T01:39:57.145Z,87.90
2017-09-12T01:42:24.072Z,88.60
2017-09-12T01:44:50.189Z,88.60
2017-09-12T01:47:17.096Z,88.50
2017-09-12T01:49:43.274Z,88.40
2017-09-12T01:52:09.442Z,87.50
2017-09-12T01:54:36.342Z,88.30
2017-09-12T01:57:03.256Z,88.00
2017-09-12T01:59:30.095Z,89.00
2017-09-12T02:01:56.988Z,89.50
2017-09-12T02:04:23.985Z,89.80
2017-09-12T02:06:50.898Z,90.00
2017-09-12T02:09:17.785Z,90.00
2017-09-12T02:11:43.960Z,90.00
2017-09-12T02:14:10.837Z,90.40
2017-09-12T02:16:37.717Z,90.30
2017-09-12T02:19:04.665Z,91.00
2017-09-12T02:21:31.610Z,91.40
2017-09-12T02:23:58.578Z,90.50
2017-09-12T02:26:25.516Z,90.80
2017-09-12T02:28:52.408Z,91.20
2017-09-12T02:31:18.528Z,91.10
2017-09-12T02:33:45.473Z,91.40
2017-09-12T02:36:12.426Z,91.10
2017-09-12T02:38:39.318Z,91.80
2017-09-12T02:41:06.262Z,92.20
2017-09-12T02:43:32.529Z,92.20
2017-09-12T02:45:59.516Z,92.00
2017-09-12T02:48:26.391Z,92.10
2017-09-12T02:50:53.419Z,92.40
2017-09-12T02:53:20.338Z,92.60
2017-09-12T02:55:47.300Z,93.00
2017-09-12T02:58:14.246Z,93.50
2017-09-12T03:00:41.205Z,93.60
2017-09-12T03:03:08.260Z,93.60
2017-09-12T03:05:42.191Z,93.60
2017-09-12T03:08:09.175Z,94.40
2017-09-12T03:10:35.364Z,94.20
2017-09-12T03:13:02.223Z,95.50
2017-09-12T03:15:29.106Z,95.40
2017-09-12T03:17:55.214Z,95.40
2017-09-12T03:20:22.086Z,95.70
2017-09-12T03:22:49.632Z,96.00
2017-09-12T03:25:17.068Z,96.00
2017-09-12T03:27:43.984Z,95.50
2017-09-12T03:30:10.938Z,96.00
2017-09-12T03:32:40.170Z,96.00
2017-09-12T03:35:07.080Z,96.10
2017-09-12T03:37:33.317Z,96.00
2017-09-12T03:40:00.196Z,96.10
2017-09-12T03:42:27.073Z,96.70
2017-09-12T03:44:54.047Z,95.70
2017-09-12T03:47:20.972Z,96.60
2017-09-12T03:49:47.964Z,95.90
2017-09-12T03:52:14.876Z,96.00
2017-09-12T03:54:41.766Z,96.50
2017-09-12T03:57:08.731Z,96.50
2017-09-12T03:59:35.673Z,97.00
2017-09-12T04:02:01.808Z,97.00
2017-09-12T04:04:28.768Z,97.00
2017-09-12T04:06:55.705Z,96.90
2017-09-12T04:09:22.555Z,95.90
2017-09-12T04:11:49.453Z,96.40
2017-09-12T04:14:16.373Z,97.10
2017-09-12T04:16:43.242Z,97.10
2017-09-12T04:19:10.211Z,97.10
2017-09-12T04:21:37.141Z,97.30
2017-09-12T04:24:03.252Z,97.20
2017-09-12T04:26:29.393Z,96.60
2017-09-12T04:28:56.304Z,96.00
2017-09-12T04:31:23.234Z,94.40
2017-09-12T04:33:50.133Z,94.20
2017-09-12T04:36:17.123Z,95.20
2017-09-12T04:38:44.014Z,93.90
2017-09-12T04:41:10.986Z,93.70
2017-09-12T04:43:37.940Z,93.90
2017-09-12T04:46:04.794Z,94.60
2017-09-12T04:48:31.774Z,94.80
2017-09-12T04:50:58.762Z,95.20
2017-09-12T04:53:25.702Z,94.80
2017-09-12T04:55:52.629Z,94.90
2017-09-12T04:58:19.561Z,95.00
2017-09-12T05:00:46.428Z,93.20
2017-09-12T05:03:12.757Z,93.10
2017-09-12T05:05:38.890Z,92.80
2017-09-12T05:08:05.764Z,91.50
2017-09-12T05:10:32.637Z,91.20
2017-09-12T05:12:59.596Z,91.50
2017-09-12T05:15:26.549Z,90.80
2017-09-12T05:17:53.699Z,89.80
2017-09-12T05:20:19.914Z,89.80
2017-09-12T05:22:46.792Z,89.20
2017-09-12T05:25:13.841Z,88.50
2017-09-12T05:27:40.077Z,89.20
2017-09-12T05:30:06.999Z,87.60
2017-09-12T05:32:33.176Z,87.60
2017-09-12T05:35:00.109Z,87.30
2017-09-12T05:37:28.036Z,87.20
2017-09-12T05:39:55.155Z,87.20
2017-09-12T05:42:22.121Z,86.40
2017-09-12T05:44:48.987Z,86.20
2017-09-12T05:47:15.105Z,86.10
2017-09-12T05:49:42.005Z,85.50
2017-09-12T05:52:08.953Z,84.60
2017-09-12T05:54:35.833Z,83.10
2017-09-12T05:57:02.773Z,83.70
2017-09-12T05:59:29.825Z,82.70
2017-09-12T06:01:56.825Z,82.10
2017-09-12T06:04:23.761Z,80.80
2017-09-12T06:06:50.698Z,80.70
2017-09-12T06:09:17.588Z,80.80
2017-09-12T06:11:43.756Z,81.00
2017-09-12T06:14:10.648Z,80.30
2017-09-12T06:16:37.546Z,80.20
2017-09-12T06:19:05.010Z,79.20
2017-09-12T06:21:31.232Z,79.10
2017-09-12T06:23:58.281Z,78.50
2017-09-12T06:26:25.229Z,77.10
2017-09-12T06:28:52.085Z,77.40
2017-09-12T06:31:19.014Z,77.10
2017-09-12T06:33:45.906Z,75.80
2017-09-12T06:36:12.858Z,75.60
2017-09-12T06:38:39.749Z,75.40
2017-09-12T06:41:06.680Z,76.20
2017-09-12T06:43:33.524Z,75.50
2017-09-12T06:46:00.584Z,75.40
2017-09-12T06:48:27.572Z,75.00
2017-09-12T06:50:53.673Z,75.00
2017-09-12T06:53:20.566Z,72.90
2017-09-12T06:55:46.753Z,72.90
2017-09-12T06:58:13.720Z,72.20
2017-09-12T07:00:40.649Z,71.90
2017-09-12T07:03:07.549Z,72.50
2017-09-12T07:05:34.488Z,67.90
2017-09-12T07:08:01.392Z,64.50
2017-09-12T07:10:27.580Z,64.50
2017-09-12T07:12:54.538Z,68.70
2017-09-12T07:15:20.747Z,68.80
2017-09-12T07:17:46.913Z,69.00
2017-09-12T07:20:13.828Z,68.10
2017-09-12T07:22:40.769Z,67.50
2017-09-12T07:25:07.700Z,65.80
2017-09-12T07:27:33.810Z,66.00
2017-09-12T07:30:00.726Z,60.90
2017-09-12T07:32:26.877Z,61.00
2017-09-12T07:34:54.144Z,63.50
2017-09-12T07:37:21.084Z,66.90
2017-09-12T07:39:48.018Z,69.60
2017-09-12T07:42:14.886Z,70.50
2017-09-12T07:44:41.912Z,71.70
2017-09-12T07:47:08.814Z,71.20
2017-09-12T07:49:35.817Z,72.20
2017-09-12T07:52:01.956Z,72.20
2017-09-12T07:54:28.897Z,71.80
2017-09-12T07:56:55.856Z,71.40
2017-09-12T07:59:22.784Z,71.10
2017-09-12T08:01:49.716Z,70.00
2017-09-12T08:04:15.858Z,69.90
2017-09-12T08:06:42.716Z,71.90
2017-09-12T08:09:10.077Z,72.30
2017-09-12T08:11:36.945Z,71.00
2017-09-12T08:14:03.881Z,70.10
2017-09-12T08:16:30.777Z,70.80
2017-09-12T08:18:56.993Z,70.80
2017-09-12T08:21:23.953Z,72.90
2017-09-12T08:23:50.896Z,73.00
2017-09-12T08:26:17.785Z,72.90
2017-09-12T08:28:44.719Z,71.70
2017-09-12T08:31:11.772Z,69.80
2017-09-12T08:33:37.888Z,69.70
2017-09-12T08:36:05.467Z,68.70
2017-09-12T08:38:32.096Z,68.80
2017-09-12T08:40:59.004Z,69.20
2017-09-12T08:43:26.073Z,69.00
2017-09-12T08:45:53.230Z,67.30
2017-09-12T08:48:20.235Z,66.00
2017-09-12T08:50:47.232Z,67.10
2017-09-12T08:53:14.563Z,65.80
2017-09-12T08:55:41.768Z,58.60
2017-09-12T08:58:08.213Z,58.50
2017-09-12T09:00:34.598Z,54.30
2017-09-12T09:03:01.063Z,54.20
2017-09-12T09:05:27.998Z,56.00
2017-09-12T09:07:54.944Z,57.30
2017-09-12T09:10:21.908Z,59.90
2017-09-12T09:12:48.096Z,59.70
2017-09-12T09:15:15.053Z,59.50
2017-09-12T09:17:41.185Z,59.40
2017-09-12T09:20:08.083Z,54.30
2017-09-12T09:22:35.017Z,50.40
2017-09-12T09:25:01.161Z,50.40
2017-09-12T09:27:27.388Z,49.90
2017-09-12T09:29:54.329Z,53.80
2017-09-12T09:32:20.573Z,53.90
2017-09-12T09:34:47.472Z,48.40
2017-09-12T09:37:13.629Z,48.40
2017-09-12T09:39:40.650Z,50.20
2017-09-12T09:42:07.522Z,48.10
2017-09-12T09:44:33.647Z,48.20
2017-09-12T09:47:00.672Z,47.70
2017-09-12T09:49:27.636Z,47.00
2017-09-12T09:51:54.569Z,47.10
2017-09-12T09:54:21.499Z,48.60
2017-09-12T09:56:47.717Z,48.50
2017-09-12T09:59:14.631Z,47.50
2017-09-12T10:01:40.788Z,47.50
2017-09-12T10:04:07.716Z,45.80
2017-09-12T10:06:33.845Z,45.80
2017-09-12T10:09:00.025Z,48.20
2017-09-12T10:11:27.015Z,46.50
2017-09-12T10:13:53.298Z,46.50
2017-09-12T10:16:20.238Z,44.10
2017-09-12T10:18:46.464Z,44.10
2017-09-12T10:21:13.442Z,48.20
2017-09-12T10:23:40.940Z,48.50
2017-09-12T10:26:07.297Z,48.50
2017-09-12T10:28:33.540Z,50.80
2017-09-12T10:31:00.463Z,50.90
2017-09-12T10:33:27.497Z,51.60
2017-09-12T10:35:53.648Z,51.50
2017-09-12T10:38:20.665Z,50.50
2017-09-12T10:40:47.595Z,52.20
2017-09-12T10:43:14.563Z,49.60
2017-09-12T10:45:40.944Z,49.50
2017-09-12T10:48:07.180Z,48.40
2017-09-12T10:50:34.099Z,49.20
2017-09-12T10:53:01.019Z,50.90
2017-09-12T10:55:28.153Z,52.00
2017-09-12T10:57:54.460Z,52.00
2017-09-12T11:00:21.565Z,49.00
2017-09-12T11:02:47.987Z,49.00
2017-09-12T11:05:14.855Z,50.20
2017-09-12T11:07:41.815Z,50.80
2017-09-12T11:10:08.772Z,49.40
2017-09-12T11:12:35.034Z,49.40
2017-09-12T11:15:02.057Z,49.70
2017-09-12T11:17:28.190Z,49.70
2017-09-12T11:19:54.311Z,47.70
2017-09-12T11:22:20.587Z,46.50
2017-09-12T11:24:47.622Z,47.90
2017-09-12T11:27:14.555Z,51.60
2017-09-12T11:29:41.460Z,49.50
2017-09-12T11:32:08.422Z,46.00
2017-09-12T11:34:35.438Z,47.90
2017-09-12T11:37:01.571Z,47.90
2017-09-12T11:39:28.501Z,49.30
2017-09-12T11:41:55.514Z,50.30
2017-09-12T11:44:22.393Z,51.80
2017-09-12T11:46:49.377Z,53.90
2017-09-12T11:49:16.305Z,54.20
2017-09-12T11:51:42.662Z,54.30
2017-09-12T11:54:09.674Z,53.10
2017-09-12T11:56:35.776Z,53.10
2017-09-12T11:59:02.709Z,53.10
2017-09-12T12:01:29.672Z,54.40
2017-09-12T12:03:56.787Z,54.20
2017-09-12T12:06:23.672Z,54.70
2017-09-12T12:08:50.698Z,53.60
2017-09-12T12:11:17.597Z,53.00
2017-09-12T12:13:44.613Z,52.10
2017-09-12T12:16:11.592Z,51.10
2017-09-12T12:18:38.640Z,51.80
2017-09-12T12:21:05.544Z,51.10
2017-09-12T12:23:31.751Z,50.90
2017-09-12T12:25:57.923Z,50.70
2017-09-12T12:28:24.951Z,45.80
2017-09-12T12:30:51.888Z,46.90
2017-09-12T12:33:18.872Z,46.90
2017-09-12T12:35:45.749Z,46.00
2017-09-12T12:38:12.655Z,48.00
2017-09-12T12:40:39.618Z,48.20
2017-09-12T12:43:05.760Z,48.20
2017-09-12T12:45:31.886Z,48.90
2017-09-12T12:47:58.800Z,48.60
2017-09-12T12:50:25.852Z,49.80
2017-09-12T12:52:52.803Z,51.70
2017-09-12T12:55:19.081Z,51.70
2017-09-12T12:57:46.423Z,51.80
2017-09-12T13:00:13.275Z,51.50
2017-09-12T13:02:39.584Z,51.40
2017-09-12T13:05:05.896Z,52.20
2017-09-12T13:07:32.860Z,55.20
2017-09-12T13:09:59.768Z,54.90
2017-09-12T13:12:26.056Z,54.90
2017-09-12T13:14:52.976Z,55.90
2017-09-12T13:17:20.016Z,57.40
2017-09-12T13:19:46.896Z,59.40
2017-09-12T13:22:13.800Z,59.30
2017-09-12T13:24:39.960Z,63.30
2017-09-12T13:27:06.836Z,81.90
2017-09-12T13:29:33.724Z,84.90
2017-09-12T13:32:00.007Z,84.50
2017-09-12T13:34:26.861Z,84.80
2017-09-12T13:36:53.469Z,87.90
2017-09-12T13:39:19.624Z,89.30
2017-09-12T13:41:46.621Z,93.10
2017-09-12T13:44:12.880Z,93.00
2017-09-12T13:46:39.187Z,99.90
2017-09-12T13:49:06.160Z,99.90
2017-09-12T13:51:33.101Z,99.90
2017-09-12T13:53:59.860Z,99.90
2017-09-12T13:56:26.796Z,97.20
2017-09-12T13:58:53.729Z,91.50
2017-09-12T14:01:19.880Z,91.30
2017-09-12T14:03:46.819Z,82.10
2017-09-12T14:06:13.098Z,82.20
2017-09-12T14:08:40.025Z,81.70
2017-09-12T14:11:06.269Z,81.40
2017-09-12T14:13:32.392Z,90.00
2017-09-12T14:15:59.552Z,85.00
2017-09-12T14:18:25.829Z,86.80
2017-09-12T14:20:52.123Z,74.80
2017-09-12T14:23:18.456Z,78.00
2017-09-12T14:25:45.457Z,74.60
2017-09-12T14:28:12.404Z,69.90
2017-09-12T14:30:38.680Z,70.00
2017-09-12T14:33:05.885Z,64.80
2017-09-12T14:35:32.739Z,67.80
2017-09-12T14:37:59.085Z,67.40
2017-09-12T14:40:25.340Z,68.10
2017-09-12T14:42:51.450Z,65.40
2017-09-12T14:45:17.589Z,66.10
2017-09-12T14:47:44.235Z,64.30
2017-09-12T14:50:10.523Z,65.40
2017-09-12T14:52:37.545Z,64.40
2017-09-12T14:55:04.463Z,64.40
2017-09-12T14:57:31.381Z,65.70
2017-09-12T14:59:57.508Z,65.80
2017-09-12T15:02:24.388Z,65.00
2017-09-12T15:04:50.568Z,65.00
2017-09-12T15:07:17.463Z,65.20
2017-09-12T15:09:44.474Z,66.10
2017-09-12T15:12:11.376Z,66.20
2017-09-12T15:14:37.568Z,66.20
2017-09-12T15:17:04.428Z,65.70
2017-09-12T15:19:30.640Z,66.90
2017-09-12T15:21:56.834Z,66.40
2017-09-12T15:24:23.736Z,67.10
2017-09-12T15:26:50.702Z,67.00
2017-09-12T15:29:17.705Z,67.70
2017-09-12T15:31:44.911Z,67.80
2017-09-12T15:34:11.952Z,65.70
2017-09-12T15:36:39.944Z,65.70
2017-09-12T15:39:06.153Z,66.40
2017-09-12T15:41:32.276Z,64.90
2017-09-12T15:43:58.515Z,63.60
2017-09-12T15:46:25.441Z,61.00
2017-09-12T15:48:52.411Z,63.40
2017-09-12T15:51:18.736Z,63.40
2017-09-12T15:53:45.772Z,65.70
2017-09-12T15:56:11.988Z,65.60
2017-09-12T15:58:38.100Z,67.10
2017-09-12T16:01:05.026Z,68.30
2017-09-12T16:03:31.549Z,68.30
2017-09-12T16:05:57.768Z,66.00
2017-09-12T16:08:24.679Z,65.40
2017-09-12T16:10:51.608Z,64.40
2017-09-12T16:13:18.480Z,65.50
2017-09-12T16:15:44.917Z,65.60
2017-09-12T16:18:12.228Z,62.70
2017-09-12T16:20:38.488Z,62.80
2017-09-12T16:23:05.384Z,61.60
2017-09-12T16:25:31.503Z,61.60
2017-09-12T16:27:58.522Z,62.50
2017-09-12T16:30:25.444Z,63.00
2017-09-12T16:32:53.470Z,63.30
2017-09-12T16:35:20.428Z,63.70
2017-09-12T16:37:47.577Z,64.10
2017-09-12T16:40:13.877Z,64.00
2017-09-12T16:42:40.504Z,62.50
2017-09-12T16:45:06.663Z,62.80
2017-09-12T16:47:32.861Z,64.40
2017-09-12T16:49:59.810Z,68.00
2017-09-12T16:52:26.851Z,69.30
2017-09-12T16:54:53.395Z,70.10
2017-09-12T16:57:20.338Z,71.60
2017-09-12T16:59:47.309Z,72.10
2017-09-12T17:02:14.223Z,71.50
2017-09-12T17:04:40.498Z,71.50
2017-09-12T17:07:07.020Z,72.10
2017-09-12T17:09:33.183Z,71.90
2017-09-12T17:11:59.381Z,73.20
2017-09-12T17:14:26.365Z,75.00
2017-09-12T17:16:53.380Z,75.40
2017-09-12T17:19:19.605Z,75.40
2017-09-12T17:21:46.714Z,76.70
2017-09-12T17:24:12.857Z,76.60
2017-09-12T17:26:39.921Z,76.40
2017-09-12T17:29:06.962Z,76.00
2017-09-12T17:31:34.168Z,76.40
2017-09-12T17:34:00.754Z,76.30
2017-09-12T17:36:27.738Z,76.40
2017-09-12T17:38:54.645Z,76.80
2017-09-12T17:41:20.772Z,76.80
2017-09-12T17:43:47.748Z,77.20
2017-09-12T17:46:13.853Z,77.10
2017-09-12T17:48:40.262Z,77.80
2017-09-12T17:51:07.163Z,78.40
2017-09-12T17:53:33.312Z,78.30
2017-09-12T17:56:00.405Z,78.20
2017-09-12T17:58:27.401Z,78.00
2017-09-12T18:00:54.365Z,77.30
2017-09-12T18:03:21.534Z,77.40
2017-09-12T18:05:47.828Z,78.30
2017-09-12T18:08:14.756Z,78.10
2017-09-12T18:10:41.677Z,78.60
2017-09-12T18:13:08.550Z,79.10
2017-09-12T18:15:35.558Z,80.10
2017-09-12T18:18:02.489Z,80.60
2017-09-12T18:20:28.664Z,80.60
2017-09-12T18:22:55.565Z,82.20
2017-09-12T18:25:22.508Z,82.10
2017-09-12T18:27:49.033Z,82.10
2017-09-12T18:30:15.248Z,82.00
2017-09-12T18:32:42.158Z,82.90
2017-09-12T18:35:09.188Z,83.00
2017-09-12T18:37:36.097Z,83.50
2017-09-12T18:40:02.313Z,83.40
2017-09-12T18:42:29.193Z,85.20
2017-09-12T18:44:55.437Z,85.10
2017-09-12T18:47:21.655Z,85.70
2017-09-12T18:49:48.650Z,87.40
2017-09-12T18:52:15.712Z,89.10
2017-09-12T18:54:42.634Z,89.00
2017-09-12T18:57:09.665Z,89.00
2017-09-12T18:59:36.248Z,89.80
2017-09-12T19:02:02.429Z,90.40
2017-09-12T19:04:29.417Z,90.80
2017-09-12T19:06:55.672Z,90.70
2017-09-12T19:09:21.974Z,91.10
2017-09-12T19:11:48.237Z,91.40
2017-09-12T19:14:15.195Z,91.00
2017-09-12T19:16:41.361Z,91.00
2017-09-12T19:19:08.394Z,91.20
2017-09-12T19:21:35.773Z,91.00
2017-09-12T19:24:02.780Z,90.40
2017-09-12T19:26:29.726Z,90.50
2017-09-12T19:28:56.741Z,90.10
2017-09-12T19:31:23.666Z,89.80
2017-09-12T19:33:49.939Z,89.80
2017-09-12T19:36:16.969Z,87.60
2017-09-12T19:38:43.950Z,86.50
2017-09-12T19:41:10.139Z,86.50
2017-09-12T19:43:37.149Z,86.90
2017-09-12T19:46:03.425Z,86.90
2017-09-12T19:48:29.766Z,86.30
2017-09-12T19:50:56.724Z,83.30
2017-09-12T19:53:23.040Z,83.20
2017-09-12T19:55:49.982Z,80.80
2017-09-12T19:58:17.021Z,80.50
2017-09-12T20:00:43.952Z,82.20
2017-09-12T20:03:10.226Z,82.20
2017-09-12T20:05:37.276Z,80.50
2017-09-12T20:08:03.488Z,80.30
2017-09-12T20:10:29.669Z,79.90
2017-09-12T20:12:56.089Z,80.20
2017-09-12T20:15:23.143Z,81.40
2017-09-12T20:17:49.549Z,81.40
2017-09-12T20:20:15.820Z,82.40
2017-09-12T20:22:42.018Z,83.30
2017-09-12T20:25:08.965Z,83.30
2017-09-12T20:27:35.914Z,84.00
2017-09-12T20:30:02.231Z,84.00
2017-09-12T20:32:28.404Z,85.40
2017-09-12T20:34:56.009Z,86.90
2017-09-12T20:37:22.956Z,87.80
2017-09-12T20:39:49.188Z,87.70
2017-09-12T20:42:15.368Z,88.30
2017-09-12T20:44:42.577Z,89.10
2017-09-12T20:47:09.786Z,88.60
2017-09-12T20:49:36.255Z,88.50
2017-09-12T20:52:02.445Z,87.90
2017-09-12T20:54:28.638Z,86.40
2017-09-12T20:56:55.573Z,84.30
2017-09-12T20:59:22.557Z,83.00
2017-09-12T21:01:48.857Z,83.10
2017-09-12T21:04:15.333Z,83.70
2017-09-12T21:06:41.582Z,84.00
2017-09-12T21:09:08.289Z,84.60
2017-09-12T21:11:35.547Z,83.30
2017-09-12T21:14:02.007Z,83.20
2017-09-12T21:16:29.491Z,84.50
2017-09-12T21:18:56.551Z,83.80
2017-09-12T21:21:22.848Z,83.80
2017-09-12T21:23:49.028Z,84.30
2017-09-12T21:26:15.329Z,84.20
2017-09-12T21:28:42.240Z,86.50
2017-09-12T21:31:09.224Z,86.40
2017-09-12T21:33:35.488Z,86.20
2017-09-12T21:36:02.485Z,87.30
2017-09-12T21:38:28.691Z,87.30
2017-09-12T21:40:54.934Z,89.40
2017-09-12T21:43:21.841Z,92.10
2017-09-12T21:45:48.852Z,93.20
2017-09-12T21:48:15.210Z,93.20
2017-09-12T21:50:42.168Z,96.00
2017-09-12T21:53:09.170Z,96.80
2017-09-12T21:55:35.462Z,96.70
2017-09-12T21:58:01.616Z,97.10
2017-09-12T22:00:28.589Z,98.30
2017-09-12T22:02:54.807Z,98.30
2017-09-12T22:05:21.766Z,99.40
2017-09-12T22:07:48.743Z,99.40
2017-09-12T22:10:14.879Z,99.90
2017-09-12T22:12:43.644Z,99.90
2017-09-12T22:15:10.597Z,99.90
2017-09-12T22:17:37.481Z,99.90
2017-09-12T22:20:04.237Z,99.90
2017-09-12T22:22:30.496Z,99.90
2017-09-12T22:24:56.796Z,99.90
2017-09-12T22:27:23.274Z,99.90
2017-09-12T22:29:51.064Z,99.90
2017-09-12T22:32:20.314Z,99.90
2017-09-12T22:34:46.512Z,99.90
2017-09-12T22:37:12.744Z,99.90
2017-09-12T22:39:40.368Z,99.90
2017-09-12T22:42:06.573Z,99.90
2017-09-12T22:44:32.780Z,99.90
2017-09-12T22:46:59.817Z,99.90
2017-09-12T22:49:25.977Z,99.90
2017-09-12T22:51:53.181Z,99.90
2017-09-12T22:54:20.247Z,99.90
2017-09-12T22:56:46.450Z,99.90
2017-09-12T22:59:12.685Z,99.90
2017-09-12T23:01:39.817Z,99.90
2017-09-12T23:04:06.993Z,99.90
2017-09-12T23:06:33.130Z,99.90
2017-09-12T23:09:00.700Z,99.90
2017-09-12T23:11:35.599Z,99.90
2017-09-12T23:14:07.857Z,99.90
2017-09-12T23:16:37.964Z,99.90
2017-09-12T23:19:22.188Z,99.90
2017-09-12T23:21:49.297Z,99.90
2017-09-12T23:24:16.238Z,99.90
2017-09-12T23:26:45.383Z,99.90
2017-09-12T23:29:11.933Z,99.90
2017-09-12T23:31:38.873Z,99.90
2017-09-12T23:34:07.712Z,99.90
2017-09-12T23:36:33.936Z,99.90
2017-09-12T23:39:00.132Z,99.90
2017-09-12T23:41:26.354Z,99.90
2017-09-12T23:43:53.530Z,99.90
2017-09-12T23:46:20.426Z,99.90
2017-09-12T23:48:47.472Z,99.90
2017-09-12T23:51:13.644Z,99.90
2017-09-12T23:53:39.933Z,99.90
2017-09-12T23:56:06.889Z,99.90
2017-09-12T23:58:33.218Z,99.90
